createdAt,value
2018-02-09T00:01:24.090Z,99.90
2018-02-09T00:03:51.637Z,99.90
2018-02-09T00:06:19.163Z,99.90
2018-02-09T00:08:47.463Z,99.90
2018-02-09T00:11:14.993Z,99.90
2018-02-09T00:13:42.504Z,99.90
2018-02-09T00:16:10.016Z,99.90
2018-02-09T00:18:37.662Z,99.60
2018-02-09T00:21:05.186Z,99.40
2018-02-09T00:23:32.702Z,99.60
2018-02-09T00:26:00.239Z,99.40
2018-02-09T00:28:27.745Z,99.60
2018-02-09T00:30:55.312Z,99.50
2018-02-09T00:33:22.858Z,99.50
2018-02-09T00:35:50.385Z,99.20
2018-02-09T00:38:17.934Z,99.80
2018-02-09T00:40:45.474Z,99.10
2018-02-09T00:43:13.738Z,99.50
2018-02-09T00:45:41.248Z,99.60
2018-02-09T00:48:08.882Z,99.30
2018-02-09T00:50:37.184Z,99.40
2018-02-09T00:53:04.690Z,99.80
2018-02-09T00:55:32.222Z,99.40
2018-02-09T00:57:59.751Z,99.40
2018-02-09T01:00:28.034Z,99.50
2018-02-09T01:02:56.437Z,99.30
2018-02-09T01:05:23.943Z,99.30
2018-02-09T01:07:51.463Z,99.50
2018-02-09T01:10:18.997Z,99.70
2018-02-09T01:12:47.265Z,99.70
2018-02-09T01:15:14.788Z,99.70
2018-02-09T01:17:42.322Z,99.90
2018-02-09T01:20:09.841Z,99.60
2018-02-09T01:22:37.354Z,99.40
2018-02-09T01:25:04.884Z,99.40
2018-02-09T01:27:32.407Z,99.50
2018-02-09T01:29:59.907Z,99.70
2018-02-09T01:32:27.441Z,99.60
2018-02-09T01:34:54.952Z,99.40
2018-02-09T01:37:23.236Z,99.90
2018-02-09T01:39:51.632Z,99.80
2018-02-09T01:42:19.146Z,99.80
2018-02-09T01:44:46.656Z,99.10
2018-02-09T01:47:14.312Z,99.10
2018-02-09T01:49:42.600Z,99.10
2018-02-09T01:52:10.104Z,99.10
2018-02-09T01:54:37.728Z,99.40
2018-02-09T01:57:05.244Z,99.30
2018-02-09T01:59:32.760Z,99.90
2018-02-09T02:02:00.301Z,99.90
2018-02-09T02:04:28.604Z,99.80
2018-02-09T02:06:56.122Z,99.80
2018-02-09T02:09:23.662Z,99.80
2018-02-09T02:11:51.164Z,99.80
2018-02-09T02:14:19.445Z,99.90
2018-02-09T02:16:47.741Z,99.80
2018-02-09T02:19:16.007Z,99.40
2018-02-09T02:21:44.279Z,99.20
2018-02-09T02:24:11.827Z,99.20
2018-02-09T02:26:39.327Z,99.50
2018-02-09T02:29:06.860Z,99.20
2018-02-09T02:31:34.405Z,99.50
2018-02-09T02:34:02.692Z,99.60
2018-02-09T02:36:30.209Z,99.60
2018-02-09T02:38:57.825Z,99.80
2018-02-09T02:41:26.110Z,99.30
2018-02-09T02:43:53.621Z,99.20
2018-02-09T02:46:21.148Z,99.20
2018-02-09T02:48:48.684Z,99.30
2018-02-09T02:51:16.213Z,99.20
2018-02-09T02:53:43.753Z,99.10
2018-02-09T02:56:12.022Z,99.40
2018-02-09T02:58:39.532Z,99.40
2018-02-09T03:01:07.184Z,99.10
2018-02-09T03:03:34.713Z,99.90
2018-02-09T03:06:02.261Z,99.70
2018-02-09T03:08:29.809Z,99.30
2018-02-09T03:10:57.320Z,99.60
2018-02-09T03:13:25.589Z,99.00
2018-02-09T03:15:53.121Z,99.00
2018-02-09T03:18:20.646Z,99.10
2018-02-09T03:20:48.165Z,99.40
2018-02-09T03:23:15.685Z,99.10
2018-02-09T03:25:43.194Z,99.20
2018-02-09T03:28:10.697Z,99.50
2018-02-09T03:30:38.232Z,99.20
2018-02-09T03:33:06.513Z,99.20
2018-02-09T03:35:34.787Z,99.20
2018-02-09T03:38:03.060Z,99.30
2018-02-09T03:40:30.577Z,99.20
2018-02-09T03:42:58.117Z,99.20
2018-02-09T03:45:25.716Z,99.10
2018-02-09T03:47:53.221Z,99.40
2018-02-09T03:50:21.533Z,99.30
2018-02-09T03:52:49.039Z,99.30
2018-02-09T03:55:16.539Z,99.30
2018-02-09T03:57:44.838Z,99.20
2018-02-09T04:00:12.350Z,99.30
2018-02-09T04:02:39.865Z,99.30
2018-02-09T04:05:07.401Z,99.40
2018-02-09T04:07:35.678Z,99.30
2018-02-09T04:10:03.196Z,99.20
2018-02-09T04:12:30.820Z,99.20
2018-02-09T04:14:59.113Z,99.20
2018-02-09T04:17:26.633Z,99.20
2018-02-09T04:19:54.272Z,99.10
2018-02-09T04:22:21.788Z,99.40
2018-02-09T04:24:50.075Z,99.30
2018-02-09T04:27:18.376Z,99.60
2018-02-09T04:29:45.886Z,99.60
2018-02-09T04:32:13.400Z,99.40
2018-02-09T04:34:40.931Z,99.00
2018-02-09T04:37:08.440Z,99.10
2018-02-09T04:39:35.946Z,99.30
2018-02-09T04:42:03.479Z,99.40
2018-02-09T04:44:30.985Z,99.60
2018-02-09T04:46:59.260Z,99.70
2018-02-09T04:49:26.813Z,99.40
2018-02-09T04:51:54.321Z,99.30
2018-02-09T04:54:21.892Z,99.30
2018-02-09T04:56:50.165Z,99.10
2018-02-09T04:59:17.674Z,99.10
2018-02-09T05:01:45.192Z,99.20
2018-02-09T05:04:12.832Z,99.30
2018-02-09T05:06:41.109Z,99.20
2018-02-09T05:09:09.389Z,99.30
2018-02-09T05:11:37.700Z,99.30
2018-02-09T05:14:05.207Z,99.30
2018-02-09T05:16:32.707Z,99.50
2018-02-09T05:19:01.016Z,99.20
2018-02-09T05:21:28.550Z,99.20
2018-02-09T05:23:56.825Z,99.10
2018-02-09T05:26:25.132Z,99.10
2018-02-09T05:28:52.640Z,99.00
2018-02-09T05:31:20.165Z,99.00
2018-02-09T05:33:47.723Z,99.20
2018-02-09T05:36:15.243Z,99.50
2018-02-09T05:38:42.766Z,99.40
2018-02-09T05:41:10.298Z,99.30
2018-02-09T05:43:38.596Z,99.30
2018-02-09T05:46:06.103Z,99.20
2018-02-09T05:48:33.653Z,99.60
2018-02-09T05:51:01.174Z,99.80
2018-02-09T05:53:28.691Z,99.60
2018-02-09T05:55:56.219Z,99.60
2018-02-09T05:58:23.746Z,99.70
2018-02-09T06:00:52.041Z,99.70
2018-02-09T06:03:19.590Z,99.70
2018-02-09T06:05:47.874Z,99.50
2018-02-09T06:08:16.148Z,99.60
2018-02-09T06:10:44.464Z,99.60
2018-02-09T06:13:11.997Z,99.60
2018-02-09T06:15:40.298Z,99.30
2018-02-09T06:18:07.836Z,99.30
2018-02-09T06:20:36.128Z,99.20
2018-02-09T06:23:04.412Z,99.10
2018-02-09T06:25:32.738Z,98.60
2018-02-09T06:28:00.272Z,98.30
2018-02-09T06:30:28.691Z,98.50
2018-02-09T06:32:56.241Z,98.60
2018-02-09T06:35:23.774Z,98.20
2018-02-09T06:37:51.296Z,98.60
2018-02-09T06:40:18.854Z,98.30
2018-02-09T06:42:46.385Z,98.70
2018-02-09T06:45:13.912Z,98.50
2018-02-09T06:47:42.232Z,98.00
2018-02-09T06:50:09.744Z,97.90
2018-02-09T06:52:38.028Z,98.60
2018-02-09T06:55:05.561Z,98.20
2018-02-09T06:57:33.102Z,98.10
2018-02-09T07:00:00.631Z,98.10
2018-02-09T07:02:28.278Z,97.80
2018-02-09T07:04:55.810Z,98.00
2018-02-09T07:07:23.331Z,98.20
2018-02-09T07:09:50.884Z,98.00
2018-02-09T07:12:19.183Z,97.20
2018-02-09T07:14:46.698Z,97.20
2018-02-09T07:17:14.264Z,97.40
2018-02-09T07:19:41.804Z,97.50
2018-02-09T07:22:09.363Z,97.50
2018-02-09T07:24:36.920Z,97.00
2018-02-09T07:27:04.450Z,97.00
2018-02-09T07:29:32.728Z,97.50
2018-02-09T07:32:01.132Z,96.80
2018-02-09T07:34:28.652Z,96.80
2018-02-09T07:36:56.221Z,96.90
2018-02-09T07:39:23.786Z,96.60
2018-02-09T07:41:51.364Z,96.80
2018-02-09T07:44:19.678Z,96.30
2018-02-09T07:46:47.247Z,96.30
2018-02-09T07:49:14.780Z,96.40
2018-02-09T07:51:43.056Z,95.80
2018-02-09T07:54:11.428Z,96.00
2018-02-09T07:56:38.942Z,96.00
2018-02-09T07:59:06.457Z,96.30
2018-02-09T08:01:34.786Z,96.50
2018-02-09T08:04:02.308Z,96.40
2018-02-09T08:06:30.610Z,95.80
2018-02-09T08:08:58.148Z,95.80
2018-02-09T08:11:26.430Z,96.00
2018-02-09T08:13:54.732Z,95.40
2018-02-09T08:16:22.235Z,95.30
2018-02-09T08:18:49.763Z,95.60
2018-02-09T08:21:17.324Z,95.10
2018-02-09T08:23:44.831Z,94.20
2018-02-09T08:26:12.333Z,93.80
2018-02-09T08:28:40.634Z,93.40
2018-02-09T08:31:08.158Z,93.40
2018-02-09T08:33:35.683Z,93.90
2018-02-09T08:36:03.233Z,93.60
2018-02-09T08:38:30.749Z,93.50
2018-02-09T08:40:58.276Z,93.00
2018-02-09T08:43:25.820Z,93.50
2018-02-09T08:45:53.339Z,93.20
2018-02-09T08:48:21.628Z,93.20
2018-02-09T08:50:49.923Z,93.40
2018-02-09T08:53:18.214Z,92.80
2018-02-09T08:55:45.716Z,92.80
2018-02-09T08:58:13.267Z,92.70
2018-02-09T09:00:40.797Z,93.20
2018-02-09T09:03:08.319Z,92.70
2018-02-09T09:05:35.874Z,92.40
2018-02-09T09:08:04.192Z,92.40
2018-02-09T09:10:32.461Z,92.40
2018-02-09T09:13:00.039Z,92.40
2018-02-09T09:15:28.330Z,92.20
2018-02-09T09:17:55.889Z,92.20
2018-02-09T09:20:24.284Z,92.20
2018-02-09T09:22:51.792Z,92.20
2018-02-09T09:25:19.329Z,91.30
2018-02-09T09:27:46.894Z,91.10
2018-02-09T09:30:14.424Z,90.30
2018-02-09T09:32:42.709Z,91.30
2018-02-09T09:35:10.236Z,91.30
2018-02-09T09:37:37.751Z,90.00
2018-02-09T09:40:05.260Z,88.00
2018-02-09T09:42:32.889Z,88.60
2018-02-09T09:45:00.402Z,88.60
2018-02-09T09:47:27.912Z,89.10
2018-02-09T09:49:55.447Z,88.60
2018-02-09T09:52:23.761Z,89.00
2018-02-09T09:54:51.306Z,89.00
2018-02-09T09:57:18.867Z,90.10
2018-02-09T09:59:46.388Z,89.10
2018-02-09T10:02:25.957Z,87.70
2018-02-09T10:04:54.291Z,86.60
2018-02-09T10:07:21.821Z,86.60
2018-02-09T10:09:49.366Z,89.40
2018-02-09T10:12:17.669Z,85.30
2018-02-09T10:14:45.184Z,85.20
2018-02-09T10:17:12.767Z,86.00
2018-02-09T10:19:41.057Z,84.90
2018-02-09T10:22:08.613Z,84.90
2018-02-09T10:24:36.934Z,85.30
2018-02-09T10:27:04.454Z,85.30
2018-02-09T10:29:32.731Z,82.80
2018-02-09T10:32:01.050Z,82.50
2018-02-09T10:34:28.574Z,82.60
2018-02-09T10:36:56.903Z,80.70
2018-02-09T10:39:24.449Z,80.70
2018-02-09T10:41:51.971Z,82.20
2018-02-09T10:44:19.505Z,81.70
2018-02-09T10:46:47.066Z,83.40
2018-02-09T10:49:14.573Z,83.50
2018-02-09T10:51:42.869Z,82.10
2018-02-09T10:54:10.429Z,82.10
2018-02-09T10:56:37.952Z,80.60
2018-02-09T10:59:05.534Z,77.90
2018-02-09T11:01:36.733Z,75.20
2018-02-09T11:04:04.287Z,75.20
2018-02-09T11:06:31.830Z,76.10
2018-02-09T11:08:59.380Z,74.70
2018-02-09T11:11:27.678Z,76.20
2018-02-09T11:13:55.196Z,76.10
2018-02-09T11:16:23.512Z,73.30
2018-02-09T11:18:51.815Z,73.90
2018-02-09T11:21:19.326Z,73.90
2018-02-09T11:23:46.888Z,75.20
2018-02-09T11:26:14.508Z,75.50
2018-02-09T11:28:42.040Z,75.80
2018-02-09T11:31:09.565Z,72.80
2018-02-09T11:33:37.135Z,72.90
2018-02-09T11:36:04.665Z,74.30
2018-02-09T11:38:32.364Z,82.40
2018-02-09T11:40:59.900Z,75.20
2018-02-09T11:43:27.537Z,75.00
2018-02-09T11:45:55.097Z,76.70
2018-02-09T11:48:23.368Z,76.30
2018-02-09T11:50:50.876Z,76.20
2018-02-09T11:53:18.433Z,74.70
2018-02-09T11:55:45.945Z,76.10
2018-02-09T11:58:13.484Z,75.60
2018-02-09T12:00:41.058Z,76.00
2018-02-09T12:03:08.638Z,75.40
2018-02-09T12:05:36.160Z,75.90
2018-02-09T12:08:03.793Z,76.40
2018-02-09T12:10:32.123Z,77.20
2018-02-09T12:12:59.672Z,77.10
2018-02-09T12:15:27.216Z,76.40
2018-02-09T12:17:54.754Z,77.50
2018-02-09T12:20:23.064Z,76.50
2018-02-09T12:22:50.622Z,76.40
2018-02-09T12:25:18.158Z,75.90
2018-02-09T12:27:46.474Z,76.30
2018-02-09T12:30:14.021Z,76.20
2018-02-09T12:32:42.301Z,74.40
2018-02-09T12:35:10.599Z,77.40
2018-02-09T12:37:38.135Z,77.40
2018-02-09T12:40:06.527Z,76.30
2018-02-09T12:42:34.199Z,76.20
2018-02-09T12:45:02.076Z,75.80
2018-02-09T12:47:30.036Z,73.80
2018-02-09T12:49:58.354Z,73.30
2018-02-09T12:52:25.874Z,73.30
2018-02-09T12:54:54.157Z,74.30
2018-02-09T12:57:22.545Z,73.60
2018-02-09T12:59:50.835Z,72.70
2018-02-09T13:02:18.364Z,72.70
2018-02-09T13:04:45.913Z,74.50
2018-02-09T13:07:13.444Z,72.50
2018-02-09T13:09:40.971Z,73.00
2018-02-09T13:12:09.405Z,75.70
2018-02-09T13:14:48.907Z,75.50
2018-02-09T13:17:16.451Z,74.50
2018-02-09T13:19:44.762Z,74.70
2018-02-09T13:22:35.941Z,74.70
2018-02-09T13:25:04.224Z,73.80
2018-02-09T13:27:32.528Z,76.40
2018-02-09T13:30:00.117Z,76.40
2018-02-09T13:32:39.702Z,76.60
2018-02-09T13:35:08.001Z,76.80
2018-02-09T13:37:35.522Z,76.70
2018-02-09T13:40:03.041Z,77.90
2018-02-09T13:42:30.583Z,77.90
2018-02-09T13:44:58.874Z,78.40
2018-02-09T13:47:26.405Z,78.40
2018-02-09T13:49:54.740Z,81.50
2018-02-09T13:52:22.248Z,81.50
2018-02-09T13:54:49.777Z,82.80
2018-02-09T13:57:17.319Z,84.50
2018-02-09T13:59:44.834Z,84.40
2018-02-09T14:02:12.362Z,85.40
2018-02-09T14:04:39.903Z,86.20
2018-02-09T14:07:07.494Z,85.10
2018-02-09T14:09:35.012Z,87.60
2018-02-09T14:12:03.325Z,86.80
2018-02-09T14:14:30.856Z,86.80
2018-02-09T14:16:59.161Z,88.50
2018-02-09T14:19:26.720Z,88.50
2018-02-09T14:21:54.239Z,88.30
2018-02-09T14:24:21.764Z,87.30
2018-02-09T14:26:49.345Z,88.60
2018-02-09T14:29:16.890Z,86.40
2018-02-09T14:31:44.411Z,87.00
2018-02-09T14:34:12.720Z,86.20
2018-02-09T14:36:40.287Z,86.10
2018-02-09T14:39:07.829Z,86.40
2018-02-09T14:41:36.174Z,83.70
2018-02-09T14:44:03.711Z,83.70
2018-02-09T14:46:31.242Z,81.60
2018-02-09T14:48:59.571Z,82.10
2018-02-09T14:51:27.101Z,82.00
2018-02-09T14:53:54.650Z,82.10
2018-02-09T14:56:22.278Z,83.00
2018-02-09T14:58:49.830Z,83.70
2018-02-09T15:01:17.366Z,85.30
2018-02-09T15:03:44.944Z,88.10
2018-02-09T15:06:12.463Z,84.30
2018-02-09T15:08:40.763Z,84.50
2018-02-09T15:11:08.388Z,84.50
2018-02-09T15:13:35.918Z,82.10
2018-02-09T15:16:03.457Z,82.50
2018-02-09T15:18:31.010Z,84.00
2018-02-09T15:20:58.548Z,85.90
2018-02-09T15:23:26.861Z,85.00
2018-02-09T15:25:54.430Z,85.10
2018-02-09T15:28:21.941Z,85.60
2018-02-09T15:30:49.465Z,86.70
2018-02-09T15:33:17.026Z,85.50
2018-02-09T15:35:44.624Z,86.20
2018-02-09T15:38:12.190Z,85.00
2018-02-09T15:40:39.771Z,84.80
2018-02-09T15:43:07.303Z,84.20
2018-02-09T15:45:34.859Z,85.00
2018-02-09T15:48:02.530Z,84.80
2018-02-09T15:50:30.065Z,84.60
2018-02-09T15:52:57.625Z,84.70
2018-02-09T15:55:25.202Z,86.20
2018-02-09T15:57:52.738Z,88.90
2018-02-09T16:00:21.049Z,89.60
2018-02-09T16:02:48.598Z,89.60
2018-02-09T16:05:16.122Z,90.60
2018-02-09T16:07:43.634Z,91.00
2018-02-09T16:10:11.200Z,88.60
2018-02-09T16:12:38.729Z,88.20
2018-02-09T16:15:07.040Z,90.90
2018-02-09T16:17:34.675Z,90.90
2018-02-09T16:20:02.968Z,90.00
2018-02-09T16:22:31.276Z,88.50
2018-02-09T16:24:58.824Z,88.50
2018-02-09T16:27:26.347Z,89.30
2018-02-09T16:29:53.918Z,89.40
2018-02-09T16:32:21.504Z,90.10
2018-02-09T16:34:49.795Z,88.20
2018-02-09T16:37:17.329Z,88.20
2018-02-09T16:39:44.894Z,88.10
2018-02-09T16:42:12.463Z,88.90
2018-02-09T16:44:39.981Z,87.70
2018-02-09T16:47:07.521Z,88.10
2018-02-09T16:49:35.060Z,87.70
2018-02-09T16:52:03.342Z,89.20
2018-02-09T16:54:31.654Z,89.70
2018-02-09T16:56:59.200Z,89.70
2018-02-09T16:59:27.498Z,90.50
2018-02-09T17:01:55.064Z,90.50
2018-02-09T17:04:22.587Z,90.10
2018-02-09T17:06:50.906Z,91.00
2018-02-09T17:09:18.463Z,90.70
2018-02-09T17:11:45.975Z,90.90
2018-02-09T17:14:13.537Z,89.60
2018-02-09T17:16:41.103Z,90.40
2018-02-09T17:19:08.622Z,90.30
2018-02-09T17:21:36.182Z,90.00
2018-02-09T17:24:03.850Z,90.40
2018-02-09T17:26:31.368Z,91.40
2018-02-09T17:28:58.892Z,91.80
2018-02-09T17:31:26.446Z,92.40
2018-02-09T17:33:53.984Z,90.80
2018-02-09T17:36:22.271Z,91.00
2018-02-09T17:38:49.820Z,91.00
2018-02-09T17:41:18.112Z,92.10
2018-02-09T17:43:46.392Z,91.90
2018-02-09T17:46:14.762Z,92.10
2018-02-09T17:48:43.052Z,91.40
2018-02-09T17:51:11.372Z,91.20
2018-02-09T17:53:38.914Z,91.20
2018-02-09T17:56:06.429Z,91.50
2018-02-09T17:58:33.963Z,91.90
2018-02-09T18:01:01.520Z,91.60
2018-02-09T18:03:29.081Z,91.40
2018-02-09T18:05:56.627Z,91.80
2018-02-09T18:08:24.330Z,92.10
2018-02-09T18:10:51.872Z,91.50
2018-02-09T18:13:19.430Z,91.70
2018-02-09T18:15:47.036Z,92.30
2018-02-09T18:18:14.568Z,91.80
2018-02-09T18:20:42.119Z,92.10
2018-02-09T18:23:09.811Z,92.30
2018-02-09T18:25:37.358Z,92.80
2018-02-09T18:28:04.889Z,92.80
2018-02-09T18:30:33.229Z,93.20
2018-02-09T18:33:00.843Z,93.20
2018-02-09T18:35:29.162Z,93.60
2018-02-09T18:37:56.811Z,93.60
2018-02-09T18:40:24.403Z,94.40
2018-02-09T18:42:51.923Z,94.00
2018-02-09T18:45:19.476Z,93.80
2018-02-09T18:47:47.791Z,94.40
2018-02-09T18:50:15.305Z,94.40
2018-02-09T18:52:42.876Z,94.70
2018-02-09T18:55:11.194Z,94.50
2018-02-09T18:57:38.728Z,94.50
2018-02-09T19:00:07.057Z,94.70
2018-02-09T19:02:34.624Z,94.70
2018-02-09T19:05:02.161Z,95.10
2018-02-09T19:07:29.740Z,95.20
2018-02-09T19:09:57.288Z,95.10
2018-02-09T19:12:24.819Z,95.20
2018-02-09T19:14:53.146Z,95.30
2018-02-09T19:17:20.711Z,95.20
2018-02-09T19:19:48.291Z,95.20
2018-02-09T19:22:15.846Z,95.50
2018-02-09T19:24:43.417Z,95.50
2018-02-09T19:27:10.968Z,95.40
2018-02-09T19:29:38.567Z,95.60
2018-02-09T19:32:06.092Z,96.00
2018-02-09T19:34:33.659Z,95.70
2018-02-09T19:37:01.244Z,95.40
2018-02-09T19:39:28.799Z,95.20
2018-02-09T19:41:56.364Z,95.50
2018-02-09T19:44:23.922Z,95.50
2018-02-09T19:46:51.492Z,95.70
2018-02-09T19:49:19.026Z,95.60
2018-02-09T19:51:46.601Z,95.90
2018-02-09T19:54:14.231Z,96.30
2018-02-09T19:56:42.544Z,96.60
2018-02-09T19:59:10.109Z,96.60
2018-02-09T20:01:37.648Z,96.50
2018-02-09T20:04:05.969Z,96.80
2018-02-09T20:06:33.531Z,96.80
2018-02-09T20:09:01.088Z,96.70
2018-02-09T20:11:28.661Z,96.20
2018-02-09T20:13:56.303Z,96.20
2018-02-09T20:16:23.895Z,95.80
2018-02-09T20:18:51.450Z,96.40
2018-02-09T20:21:19.080Z,96.80
2018-02-09T20:23:47.421Z,96.90
2018-02-09T20:26:14.958Z,97.00
2018-02-09T20:28:42.539Z,97.20
2018-02-09T20:31:10.092Z,97.40
2018-02-09T20:33:37.660Z,97.20
2018-02-09T20:36:05.225Z,97.10
2018-02-09T20:38:32.801Z,97.30
2018-02-09T20:41:00.343Z,97.40
2018-02-09T20:43:27.927Z,97.40
2018-02-09T20:45:55.471Z,97.30
2018-02-09T20:48:23.061Z,97.60
2018-02-09T20:50:50.792Z,97.30
2018-02-09T20:53:18.348Z,97.40
2018-02-09T20:55:45.959Z,97.70
2018-02-09T20:58:13.615Z,97.40
2018-02-09T21:00:41.148Z,97.50
2018-02-09T21:03:08.723Z,97.50
2018-02-09T21:05:36.280Z,97.60
2018-02-09T21:08:03.830Z,97.70
2018-02-09T21:10:31.394Z,98.20
2018-02-09T21:12:58.993Z,98.00
2018-02-09T21:15:26.545Z,98.10
2018-02-09T21:17:54.072Z,98.30
2018-02-09T21:20:22.488Z,98.70
2018-02-09T21:22:50.056Z,98.70
2018-02-09T21:25:17.589Z,98.80
2018-02-09T21:27:45.987Z,98.90
2018-02-09T21:30:13.542Z,99.00
2018-02-09T21:32:41.856Z,99.40
2018-02-09T21:35:09.414Z,99.40
2018-02-09T21:37:36.946Z,99.20
2018-02-09T21:40:05.262Z,99.50
2018-02-09T21:42:32.813Z,99.50
2018-02-09T21:45:00.340Z,99.30
2018-02-09T21:47:28.658Z,99.50
2018-02-09T21:49:56.302Z,99.50
2018-02-09T21:52:24.612Z,99.50
2018-02-09T21:54:52.182Z,99.50
2018-02-09T21:57:19.829Z,99.40
2018-02-09T21:59:47.358Z,99.60
2018-02-09T22:02:14.952Z,99.80
2018-02-09T22:04:42.543Z,99.80
2018-02-09T22:07:10.069Z,99.70
2018-02-09T22:09:38.376Z,99.60
2018-02-09T22:12:06.054Z,99.60
2018-02-09T22:14:33.600Z,99.50
2018-02-09T22:17:01.149Z,99.60
2018-02-09T22:19:28.839Z,99.40
2018-02-09T22:21:56.412Z,99.30
2018-02-09T22:24:23.937Z,99.40
2018-02-09T22:26:52.363Z,99.20
2018-02-09T22:29:19.872Z,99.20
2018-02-09T22:31:48.172Z,99.10
2018-02-09T22:34:15.750Z,99.10
2018-02-09T22:36:43.286Z,99.20
2018-02-09T22:39:11.583Z,98.80
2018-02-09T22:41:39.128Z,98.80
2018-02-09T22:44:07.445Z,99.00
2018-02-09T22:46:34.981Z,99.00
2018-02-09T22:49:03.291Z,98.90
2018-02-09T22:51:30.835Z,98.90
2018-02-09T22:53:58.380Z,98.40
2018-02-09T22:56:26.688Z,98.60
2018-02-09T22:58:54.198Z,98.60
2018-02-09T23:01:21.716Z,98.30
2018-02-09T23:03:49.262Z,98.40
2018-02-09T23:06:17.543Z,98.00
2018-02-09T23:08:45.955Z,98.10
2018-02-09T23:11:13.500Z,98.00
2018-02-09T23:13:41.064Z,98.20
2018-02-09T23:16:08.608Z,98.30
2018-02-09T23:18:36.890Z,98.30
2018-02-09T23:21:05.180Z,98.60
2018-02-09T23:23:33.598Z,98.50
2018-02-09T23:26:01.132Z,98.50
2018-02-09T23:28:28.684Z,98.70
2018-02-09T23:30:57.002Z,98.20
2018-02-09T23:33:24.524Z,98.20
2018-02-09T23:35:52.802Z,98.50
2018-02-09T23:38:21.100Z,98.60
2018-02-09T23:40:48.614Z,98.60
2018-02-09T23:43:16.139Z,98.90
2018-02-09T23:45:43.677Z,98.70
2018-02-09T23:48:11.971Z,98.90
2018-02-09T23:50:39.512Z,98.60
2018-02-09T23:53:07.044Z,98.70
2018-02-09T23:55:34.569Z,98.40
2018-02-09T23:58:02.075Z,98.50
